首页
METAR-TAF:

METAR-TAF

机场 :

礦水城機場

礦水城, 俄罗斯

纬度: 44-14N, 经度: 043-04E, 海拔: 314米

当前天气观测

该预报发布于40分钟前的16:30 UTC
风速8节,风向
温度 2°C
湿度 93%
气压 1017 hPa
能见度10公里或以上
阴天层高于1000英尺

METAR: URMM 021630Z 09004MPS 9999 OVC010 02/01 Q1017 R12/090070 NOSIG RMK MT OBSC QFE734/0979

时间: 21:10 (17:10 UTC)

预报

该预报发布于3小时和10分钟前的14:00 UTC
预报有效从02日的 15点(UTC)到 03日的 15点(UTC)
风速6节,风向,有时为16节阵风
能见度10公里或以上
多云层高于1600英尺
短暂存在
从 02日的 15点(UTC)到 03日的 07点(UTC)
能見度: 3100
多云层高于1100英尺
轻雾
成为
从 03日的 05点(UTC)到 03日的 07点(UTC)
风速12节,风向,有时为27节阵风

TAF: URMM 021400Z 0215/0315 09003G08MPS 9999 BKN016 TX06/0312Z TNM01/0303Z TEMPO 0215/0307 3100 BR BKN011 BECMG 0305/0307 10006G14MPS

超过4000个机场的气象观测和天气预报(METAR&TAF报告)。

可查询的气象台以黄色和红色小点在地图上表示。

将鼠标移到小点上方,可查看气象台名称。

然后点击查看天气观测和预报。

如需切换地图:点击带黑十字的绿色按钮放大地图;点击带横线的绿色按钮缩小地图;或者点击绿色箭头查看邻近地区的地图。


METAR-TAF: